Skip Navigation Links
NOAA logo - Click to go to the NOAA homepage
NOAA's National Weather Service
Alaska Aviation Weather Unit
  NWS logo - Click to go to the NWS homepage
Left Navbar Graphic     03 AKDT = 11 GMT

   
NOAA is celebrating 200 years of science, service, and stewardship. Visit the NOAA 200th celebration Web site to learn more.
USA.gov is the U.S. Government's official Web portal to all Federal, state and local government Web resources and services.
Facebook
NWS on Facebook

AAWU Home :: Display TAF Add Bookmark
TAF CYZP 290649Z 2907/2919 VRB03KT P6SM FEW015 OVC040 TEMPO 2907/2912
     5SM BR BKN015 OVC040
    FM291200 16005KT P6SM FEW015 BKN040 OVC080 TEMPO 2912/2919 6SM
     -SHRA BR BKN015 OVC040
    RMK FCST BASED ON AUTO OBS. NXT FCST BY 291300Z=

METAR CYZP 290500Z AUTO VRB02KT 9SM OVC038 06/02 A2988 RMK SLP120= METAR CYZP 290600Z AUTO 00000KT 9SM OVC034 05/03 A2988 RMK SLP122= METAR CYZP 290700Z AUTO 14007KT 9SM OVC032 06/03 A2988 RMK SLP120= METAR CYZP 290800Z AUTO 18004KT 9SM OVC032 06/03 A2988 RMK SLP118= METAR CYZP 290900Z AUTO VRB02KT 9SM OVC030 05/03 A2985 RMK SLP111= METAR CYZP 291000Z AUTO 22002KT 9SM OVC028 05/03 A2984 RMK SLP108= METAR CYZP 291100Z AUTO 25004KT 9SM FEW030 OVC130 04/03 A2983 RMK SLP103=
 Alaska TAF Map

NOAA's National Weather Service
Alaska Aviation Weather Unit
6930 Sand Lake Road
Anchorage, AK 99502-1845
Disclaimer
Credits
Glossary
Privacy Policy
About Us
Career Opportunities
Contact AAWU Internet Services Site last modified: April, 17th 2012